sensor_id;sensor_type;location;lat;lon;timestamp;pressure;altitude;pressure_sealevel;temperature;humidity
6204;BME280;3135;42.602;23.468;2023-08-31T00:02:01;92282.22;;;18.53;93.65
6204;BME280;3135;42.602;23.468;2023-08-31T00:04:31;92291.22;;;18.57;93.18
6204;BME280;3135;42.602;23.468;2023-08-31T00:06:56;92274.84;;;18.50;92.51
6204;BME280;3135;42.602;23.468;2023-08-31T00:09:23;92270.03;;;18.43;93.87
6204;BME280;3135;42.602;23.468;2023-08-31T00:11:49;92284.50;;;18.67;94.66
6204;BME280;3135;42.602;23.468;2023-08-31T00:14:15;92287.19;;;18.67;94.10
6204;BME280;3135;42.602;23.468;2023-08-31T00:16:41;92273.16;;;18.61;93.99
6204;BME280;3135;42.602;23.468;2023-08-31T00:19:06;92287.31;;;18.70;93.81
6204;BME280;3135;42.602;23.468;2023-08-31T00:21:31;92278.97;;;18.63;94.91
6204;BME280;3135;42.602;23.468;2023-08-31T00:23:58;92291.94;;;18.70;94.36
6204;BME280;3135;42.602;23.468;2023-08-31T00:26:24;92280.34;;;18.69;94.49
6204;BME280;3135;42.602;23.468;2023-08-31T00:28:50;92273.16;;;18.77;95.33
6204;BME280;3135;42.602;23.468;2023-08-31T00:31:15;92282.41;;;18.76;95.12
6204;BME280;3135;42.602;23.468;2023-08-31T00:33:41;92278.84;;;18.72;95.33
6204;BME280;3135;42.602;23.468;2023-08-31T00:36:06;92274.03;;;18.65;95.98
6204;BME280;3135;42.602;23.468;2023-08-31T00:38:33;92290.81;;;18.71;95.30
6204;BME280;3135;42.602;23.468;2023-08-31T00:40:58;92294.28;;;18.71;94.93
6204;BME280;3135;42.602;23.468;2023-08-31T00:43:24;92298.38;;;18.65;94.63
6204;BME280;3135;42.602;23.468;2023-08-31T00:45:57;92301.50;;;18.67;96.33
6204;BME280;3135;42.602;23.468;2023-08-31T00:48:23;92300.47;;;18.56;95.29
6204;BME280;3135;42.602;23.468;2023-08-31T00:50:49;92290.88;;;18.43;95.84
6204;BME280;3135;42.602;23.468;2023-08-31T00:53:16;92294.28;;;18.39;97.14
6204;BME280;3135;42.602;23.468;2023-08-31T00:55:44;92296.56;;;18.37;96.45
6204;BME280;3135;42.602;23.468;2023-08-31T00:58:09;92287.25;;;18.35;97.27
6204;BME280;3135;42.602;23.468;2023-08-31T01:00:50;92307.13;;;18.43;97.45
6204;BME280;3135;42.602;23.468;2023-08-31T01:08:57;92310.69;;;18.47;97.32
6204;BME280;3135;42.602;23.468;2023-08-31T01:11:53;92308.16;;;18.38;94.68
6204;BME280;3135;42.602;23.468;2023-08-31T01:14:23;92307.81;;;18.39;95.49
6204;BME280;3135;42.602;23.468;2023-08-31T01:16:50;92296.41;;;18.30;95.58
6204;BME280;3135;42.602;23.468;2023-08-31T01:19:22;92313.56;;;18.38;96.27
6204;BME280;3135;42.602;23.468;2023-08-31T01:21:54;92315.41;;;18.18;94.84
6204;BME280;3135;42.602;23.468;2023-08-31T01:24:23;92316.03;;;18.11;95.89
6204;BME280;3135;42.602;23.468;2023-08-31T01:26:48;92301.94;;;18.06;94.75
6204;BME280;3135;42.602;23.468;2023-08-31T01:29:14;92311.66;;;18.07;95.81
6204;BME280;3135;42.602;23.468;2023-08-31T01:31:46;92308.22;;;18.10;94.70
6204;BME280;3135;42.602;23.468;2023-08-31T01:34:12;92297.16;;;17.99;95.93
6204;BME280;3135;42.602;23.468;2023-08-31T01:36:42;92320.97;;;17.94;95.52
6204;BME280;3135;42.602;23.468;2023-08-31T01:41:37;92311.50;;;17.87;96.41
6204;BME280;3135;42.602;23.468;2023-08-31T01:44:06;92309.06;;;17.82;96.53
6204;BME280;3135;42.602;23.468;2023-08-31T01:46:34;92306.81;;;17.84;96.30
6204;BME280;3135;42.602;23.468;2023-08-31T01:49:00;92298.72;;;17.72;96.17
6204;BME280;3135;42.602;23.468;2023-08-31T01:51:25;92310.66;;;17.83;96.31
6204;BME280;3135;42.602;23.468;2023-08-31T01:53:51;92314.59;;;18.02;96.25
6204;BME280;3135;42.602;23.468;2023-08-31T01:56:17;92318.06;;;17.86;96.90
6204;BME280;3135;42.602;23.468;2023-08-31T01:58:42;92308.28;;;17.82;98.10
6204;BME280;3135;42.602;23.468;2023-08-31T02:01:07;92319.38;;;17.93;96.48
6204;BME280;3135;42.602;23.468;2023-08-31T02:03:33;92301.16;;;17.90;97.04
6204;BME280;3135;42.602;23.468;2023-08-31T02:05:58;92315.88;;;17.92;97.38
6204;BME280;3135;42.602;23.468;2023-08-31T02:08:24;92313.97;;;17.93;98.42
6204;BME280;3135;42.602;23.468;2023-08-31T02:10:54;92312.66;;;17.86;97.59
6204;BME280;3135;42.602;23.468;2023-08-31T02:13:20;92310.41;;;17.88;98.32
6204;BME280;3135;42.602;23.468;2023-08-31T02:15:53;92328.03;;;17.98;97.86
6204;BME280;3135;42.602;23.468;2023-08-31T02:18:20;92319.38;;;17.93;97.99
6204;BME280;3135;42.602;23.468;2023-08-31T02:20:46;92324.88;;;17.96;98.89
6204;BME280;3135;42.602;23.468;2023-08-31T02:23:12;92316.06;;;17.83;98.06
6204;BME280;3135;42.602;23.468;2023-08-31T02:25:37;92315.25;;;17.83;98.42
6204;BME280;3135;42.602;23.468;2023-08-31T02:28:05;92320.06;;;17.90;99.41
6204;BME280;3135;42.602;23.468;2023-08-31T02:30:31;92310.94;;;17.94;99.02
6204;BME280;3135;42.602;23.468;2023-08-31T02:32:56;92319.19;;;17.85;98.10
6204;BME280;3135;42.602;23.468;2023-08-31T02:35:22;92330.44;;;17.87;99.06
6204;BME280;3135;42.602;23.468;2023-08-31T02:37:47;92320.34;;;17.72;99.05
6204;BME280;3135;42.602;23.468;2023-08-31T02:40:13;92344.00;;;17.75;99.09
6204;BME280;3135;42.602;23.468;2023-08-31T02:42:39;92339.97;;;17.69;99.29
6204;BME280;3135;42.602;23.468;2023-08-31T02:45:05;92344.66;;;17.72;99.61
6204;BME280;3135;42.602;23.468;2023-08-31T02:47:30;92323.56;;;17.50;100.00
6204;BME280;3135;42.602;23.468;2023-08-31T02:49:56;92328.50;;;17.60;100.00
6204;BME280;3135;42.602;23.468;2023-08-31T02:52:21;92338.97;;;17.74;100.00
6204;BME280;3135;42.602;23.468;2023-08-31T02:54:46;92328.94;;;17.62;100.00
6204;BME280;3135;42.602;23.468;2023-08-31T02:57:12;92339.41;;;17.63;100.00
6204;BME280;3135;42.602;23.468;2023-08-31T02:59:37;92304.09;;;17.28;100.00
6204;BME280;3135;42.602;23.468;2023-08-31T03:02:03;92316.19;;;17.34;100.00
6204;BME280;3135;42.602;23.468;2023-08-31T03:04:29;92332.13;;;17.52;100.00
6204;BME280;3135;42.602;23.468;2023-08-31T03:07:00;92324.06;;;17.40;100.00
6204;BME280;3135;42.602;23.468;2023-08-31T03:09:30;92344.88;;;17.39;100.00
6204;BME280;3135;42.602;23.468;2023-08-31T03:11:56;92330.84;;;17.33;100.00
6204;BME280;3135;42.602;23.468;2023-08-31T03:14:22;92332.88;;;17.24;100.00
6204;BME280;3135;42.602;23.468;2023-08-31T03:16:51;92320.53;;;17.11;100.00
6204;BME280;3135;42.602;23.468;2023-08-31T03:19:19;92350.03;;;17.04;100.00
6204;BME280;3135;42.602;23.468;2023-08-31T03:21:47;92336.44;;;16.88;100.00
6204;BME280;3135;42.602;23.468;2023-08-31T03:24:12;92354.53;;;16.88;100.00
6204;BME280;3135;42.602;23.468;2023-08-31T03:26:38;92363.22;;;16.81;100.00
6204;BME280;3135;42.602;23.468;2023-08-31T03:29:11;92365.22;;;16.84;100.00
6204;BME280;3135;42.602;23.468;2023-08-31T03:31:36;92368.06;;;16.75;100.00
6204;BME280;3135;42.602;23.468;2023-08-31T03:34:02;92360.63;;;16.72;100.00
6204;BME280;3135;42.602;23.468;2023-08-31T03:36:27;92347.69;;;16.66;100.00
6204;BME280;3135;42.602;23.468;2023-08-31T03:38:52;92366.22;;;16.67;100.00
6204;BME280;3135;42.602;23.468;2023-08-31T03:41:24;92352.72;;;16.67;100.00
6204;BME280;3135;42.602;23.468;2023-08-31T03:43:50;92360.06;;;16.79;100.00
6204;BME280;3135;42.602;23.468;2023-08-31T03:46:15;92364.97;;;16.65;100.00
6204;BME280;3135;42.602;23.468;2023-08-31T03:48:41;92356.41;;;16.50;100.00
6204;BME280;3135;42.602;23.468;2023-08-31T03:51:06;92360.25;;;16.61;100.00
6204;BME280;3135;42.602;23.468;2023-08-31T03:53:31;92372.19;;;16.73;100.00
6204;BME280;3135;42.602;23.468;2023-08-31T03:55:57;92370.47;;;16.56;100.00
6204;BME280;3135;42.602;23.468;2023-08-31T03:58:22;92372.59;;;16.50;100.00
6204;BME280;3135;42.602;23.468;2023-08-31T04:00:51;92377.00;;;16.43;100.00
6204;BME280;3135;42.602;23.468;2023-08-31T04:03:19;92380.13;;;16.45;100.00
6204;BME280;3135;42.602;23.468;2023-08-31T04:05:45;92388.78;;;16.50;100.00
6204;BME280;3135;42.602;23.468;2023-08-31T04:08:12;92385.78;;;16.52;100.00
6204;BME280;3135;42.602;23.468;2023-08-31T04:10:37;92390.91;;;16.45;100.00
6204;BME280;3135;42.602;23.468;2023-08-31T04:13:03;92402.84;;;16.44;100.00
6204;BME280;3135;42.602;23.468;2023-08-31T04:15:28;92406.66;;;16.43;100.00
6204;BME280;3135;42.602;23.468;2023-08-31T04:17:57;92402.97;;;16.47;100.00
6204;BME280;3135;42.602;23.468;2023-08-31T04:20:24;92414.09;;;16.58;100.00
6204;BME280;3135;42.602;23.468;2023-08-31T04:22:50;92419.97;;;16.72;100.00
6204;BME280;3135;42.602;23.468;2023-08-31T04:25:15;92415.81;;;16.75;100.00
6204;BME280;3135;42.602;23.468;2023-08-31T04:27:43;92426.84;;;16.82;100.00
6204;BME280;3135;42.602;23.468;2023-08-31T04:30:11;92434.50;;;16.92;100.00
6204;BME280;3135;42.602;23.468;2023-08-31T04:32:37;92425.50;;;17.00;100.00
6204;BME280;3135;42.602;23.468;2023-08-31T04:35:03;92427.53;;;17.16;100.00
6204;BME280;3135;42.602;23.468;2023-08-31T04:37:31;92426.16;;;17.22;100.00
6204;BME280;3135;42.602;23.468;2023-08-31T04:39:59;92419.53;;;17.31;100.00
6204;BME280;3135;42.602;23.468;2023-08-31T04:42:24;92426.88;;;17.59;100.00
6204;BME280;3135;42.602;23.468;2023-08-31T04:44:50;92419.25;;;17.49;100.00
6204;BME280;3135;42.602;23.468;2023-08-31T04:47:15;92438.16;;;17.61;100.00
6204;BME280;3135;42.602;23.468;2023-08-31T04:49:41;92428.94;;;17.74;100.00
6204;BME280;3135;42.602;23.468;2023-08-31T04:52:08;92439.13;;;17.93;100.00
6204;BME280;3135;42.602;23.468;2023-08-31T04:54:33;92428.78;;;18.11;100.00
6204;BME280;3135;42.602;23.468;2023-08-31T04:56:59;92426.53;;;18.13;100.00
6204;BME280;3135;42.602;23.468;2023-08-31T04:59:24;92437.34;;;18.13;97.68
6204;BME280;3135;42.602;23.468;2023-08-31T05:01:49;92431.94;;;18.13;100.00
6204;BME280;3135;42.602;23.468;2023-08-31T05:04:15;92435.97;;;18.19;99.41
6204;BME280;3135;42.602;23.468;2023-08-31T05:06:40;92425.41;;;18.14;97.49
6204;BME280;3135;42.602;23.468;2023-08-31T05:09:06;92416.84;;;18.12;96.18
6204;BME280;3135;42.602;23.468;2023-08-31T05:11:31;92433.00;;;18.24;96.04
6204;BME280;3135;42.602;23.468;2023-08-31T05:13:57;92425.66;;;18.09;97.20
6204;BME280;3135;42.602;23.468;2023-08-31T05:16:22;92419.31;;;18.17;96.00
6204;BME280;3135;42.602;23.468;2023-08-31T05:18:51;92422.78;;;18.18;96.27
6204;BME280;3135;42.602;23.468;2023-08-31T05:21:18;92438.94;;;18.30;94.14
6204;BME280;3135;42.602;23.468;2023-08-31T05:23:47;92434.78;;;18.32;100.00
6204;BME280;3135;42.602;23.468;2023-08-31T05:26:14;92427.34;;;18.29;100.00
6204;BME280;3135;42.602;23.468;2023-08-31T05:28:40;92409.69;;;18.20;100.00
6204;BME280;3135;42.602;23.468;2023-08-31T05:31:06;92412.66;;;18.14;100.00
6204;BME280;3135;42.602;23.468;2023-08-31T05:33:31;92418.69;;;18.24;100.00
6204;BME280;3135;42.602;23.468;2023-08-31T05:36:00;92421.78;;;18.38;100.00
6204;BME280;3135;42.602;23.468;2023-08-31T05:38:27;92423.66;;;18.50;100.00
6204;BME280;3135;42.602;23.468;2023-08-31T05:40:52;92430.09;;;18.73;100.00
6204;BME280;3135;42.602;23.468;2023-08-31T05:43:18;92447.47;;;18.88;100.00
6204;BME280;3135;42.602;23.468;2023-08-31T05:45:43;92432.00;;;18.73;100.00
6204;BME280;3135;42.602;23.468;2023-08-31T05:48:08;92426.59;;;18.73;100.00
6204;BME280;3135;42.602;23.468;2023-08-31T05:50:34;92454.59;;;18.80;100.00
6204;BME280;3135;42.602;23.468;2023-08-31T05:53:00;92435.59;;;18.49;100.00
6204;BME280;3135;42.602;23.468;2023-08-31T05:55:25;92441.88;;;18.37;100.00
6204;BME280;3135;42.602;23.468;2023-08-31T05:57:51;92446.97;;;18.54;100.00
6204;BME280;3135;42.602;23.468;2023-08-31T06:00:17;92459.66;;;18.82;100.00
6204;BME280;3135;42.602;23.468;2023-08-31T06:02:43;92451.53;;;18.82;100.00
6204;BME280;3135;42.602;23.468;2023-08-31T06:05:12;92457.31;;;18.80;100.00
6204;BME280;3135;42.602;23.468;2023-08-31T06:07:38;92459.94;;;18.93;100.00
6204;BME280;3135;42.602;23.468;2023-08-31T06:10:07;92452.44;;;19.02;100.00
6204;BME280;3135;42.602;23.468;2023-08-31T06:12:32;92455.41;;;19.12;100.00
6204;BME280;3135;42.602;23.468;2023-08-31T06:14:58;92465.09;;;19.29;100.00
6204;BME280;3135;42.602;23.468;2023-08-31T06:17:23;92457.22;;;19.24;100.00
6204;BME280;3135;42.602;23.468;2023-08-31T06:19:49;92477.25;;;19.35;100.00
6204;BME280;3135;42.602;23.468;2023-08-31T06:22:14;92463.06;;;19.42;100.00
6204;BME280;3135;42.602;23.468;2023-08-31T06:24:40;92466.81;;;19.53;100.00
6204;BME280;3135;42.602;23.468;2023-08-31T06:27:06;92458.59;;;19.65;97.80
6204;BME280;3135;42.602;23.468;2023-08-31T06:29:31;92468.09;;;19.75;98.93
6204;BME280;3135;42.602;23.468;2023-08-31T06:31:57;92484.66;;;19.89;97.67
6204;BME280;3135;42.602;23.468;2023-08-31T06:34:22;92482.34;;;20.07;94.58
6204;BME280;3135;42.602;23.468;2023-08-31T06:36:47;92478.84;;;20.26;96.73
6204;BME280;3135;42.602;23.468;2023-08-31T06:39:13;92484.50;;;20.37;92.28
6204;BME280;3135;42.602;23.468;2023-08-31T06:41:38;92488.44;;;20.59;91.71
6204;BME280;3135;42.602;23.468;2023-08-31T06:44:04;92498.16;;;20.60;91.40
6204;BME280;3135;42.602;23.468;2023-08-31T06:46:30;92499.56;;;20.73;88.31
6204;BME280;3135;42.602;23.468;2023-08-31T06:48:59;92514.13;;;21.04;85.28
6204;BME280;3135;42.602;23.468;2023-08-31T06:51:25;92501.31;;;21.04;84.24
6204;BME280;3135;42.602;23.468;2023-08-31T06:53:50;92495.75;;;20.97;83.21
6204;BME280;3135;42.602;23.468;2023-08-31T06:56:16;92510.38;;;20.89;85.11
6204;BME280;3135;42.602;23.468;2023-08-31T06:58:41;92513.56;;;20.95;82.61
6204;BME280;3135;42.602;23.468;2023-08-31T07:01:08;92500.28;;;20.89;84.33
6204;BME280;3135;42.602;23.468;2023-08-31T07:03:34;92496.06;;;21.15;84.33
6204;BME280;3135;42.602;23.468;2023-08-31T07:05:59;92500.75;;;21.37;83.78
6204;BME280;3135;42.602;23.468;2023-08-31T07:08:25;92514.19;;;21.53;82.66
6204;BME280;3135;42.602;23.468;2023-08-31T07:10:50;92511.22;;;21.62;81.74
6204;BME280;3135;42.602;23.468;2023-08-31T07:13:16;92513.84;;;21.81;79.43
6204;BME280;3135;42.602;23.468;2023-08-31T07:15:41;92510.63;;;21.99;78.73
6204;BME280;3135;42.602;23.468;2023-08-31T07:18:07;92521.34;;;21.88;78.70
6204;BME280;3135;42.602;23.468;2023-08-31T07:20:33;92517.94;;;21.94;77.25
6204;BME280;3135;42.602;23.468;2023-08-31T07:22:58;92518.81;;;21.76;78.45
6204;BME280;3135;42.602;23.468;2023-08-31T07:25:24;92518.47;;;22.04;79.52
6204;BME280;3135;42.602;23.468;2023-08-31T07:27:50;92526.31;;;22.35;78.73
6204;BME280;3135;42.602;23.468;2023-08-31T07:30:16;92511.16;;;22.38;77.88
6204;BME280;3135;42.602;23.468;2023-08-31T07:32:41;92529.56;;;22.44;78.10
6204;BME280;3135;42.602;23.468;2023-08-31T07:35:07;92533.41;;;22.74;75.22
6204;BME280;3135;42.602;23.468;2023-08-31T07:37:32;92540.13;;;22.83;74.25
6204;BME280;3135;42.602;23.468;2023-08-31T07:39:58;92540.41;;;22.75;73.99
6204;BME280;3135;42.602;23.468;2023-08-31T07:42:23;92527.56;;;22.75;73.40
6204;BME280;3135;42.602;23.468;2023-08-31T07:44:49;92535.41;;;23.14;75.81
6204;BME280;3135;42.602;23.468;2023-08-31T07:47:14;92539.41;;;23.20;73.04
6204;BME280;3135;42.602;23.468;2023-08-31T07:49:40;92536.28;;;23.21;73.69
6204;BME280;3135;42.602;23.468;2023-08-31T07:52:05;92542.56;;;23.26;72.61
6204;BME280;3135;42.602;23.468;2023-08-31T07:54:30;92548.59;;;23.45;72.90
6204;BME280;3135;42.602;23.468;2023-08-31T07:56:56;92543.13;;;23.45;73.71
6204;BME280;3135;42.602;23.468;2023-08-31T07:59:21;92544.53;;;23.69;69.94
6204;BME280;3135;42.602;23.468;2023-08-31T08:01:47;92530.00;;;23.58;72.46
6204;BME280;3135;42.602;23.468;2023-08-31T08:04:13;92548.31;;;23.58;71.75
6204;BME280;3135;42.602;23.468;2023-08-31T08:06:39;92556.34;;;23.84;71.62
6204;BME280;3135;42.602;23.468;2023-08-31T08:09:04;92543.16;;;23.93;71.07
6204;BME280;3135;42.602;23.468;2023-08-31T08:11:30;92535.50;;;24.13;69.72
6204;BME280;3135;42.602;23.468;2023-08-31T08:13:56;92529.34;;;24.27;69.25
6204;BME280;3135;42.602;23.468;2023-08-31T08:16:22;92554.34;;;24.29;69.50
6204;BME280;3135;42.602;23.468;2023-08-31T08:18:47;92556.06;;;24.55;67.93
6204;BME280;3135;42.602;23.468;2023-08-31T08:21:13;92549.00;;;24.43;69.91
6204;BME280;3135;42.602;23.468;2023-08-31T08:23:38;92555.81;;;24.82;73.18
6204;BME280;3135;42.602;23.468;2023-08-31T08:26:03;92550.03;;;24.94;69.77
6204;BME280;3135;42.602;23.468;2023-08-31T08:28:29;92554.16;;;24.63;69.51
6204;BME280;3135;42.602;23.468;2023-08-31T08:30:54;92550.69;;;24.69;67.53
6204;BME280;3135;42.602;23.468;2023-08-31T08:33:20;92548.44;;;24.93;67.99
6204;BME280;3135;42.602;23.468;2023-08-31T08:35:45;92540.75;;;25.23;67.93
6204;BME280;3135;42.602;23.468;2023-08-31T08:38:11;92539.22;;;25.40;65.24
6204;BME280;3135;42.602;23.468;2023-08-31T08:40:37;92550.59;;;25.60;65.45
6204;BME280;3135;42.602;23.468;2023-08-31T08:43:06;92548.28;;;25.87;63.69
6204;BME280;3135;42.602;23.468;2023-08-31T08:45:37;92530.69;;;26.10;63.37
6204;BME280;3135;42.602;23.468;2023-08-31T08:48:07;92535.38;;;26.06;61.74
6204;BME280;3135;42.602;23.468;2023-08-31T08:50:35;92535.72;;;26.29;61.14
6204;BME280;3135;42.602;23.468;2023-08-31T08:53:02;92548.66;;;26.43;56.46
6204;BME280;3135;42.602;23.468;2023-08-31T08:55:28;92547.88;;;26.14;62.05
6204;BME280;3135;42.602;23.468;2023-08-31T08:57:53;92553.75;;;26.30;60.45
6204;BME280;3135;42.602;23.468;2023-08-31T09:00:19;92538.03;;;26.70;59.86
6204;BME280;3135;42.602;23.468;2023-08-31T09:02:45;92541.06;;;26.93;58.56
6204;BME280;3135;42.602;23.468;2023-08-31T09:05:10;92546.13;;;26.98;55.36
6204;BME280;3135;42.602;23.468;2023-08-31T09:07:36;92540.59;;;27.20;55.28
6204;BME280;3135;42.602;23.468;2023-08-31T09:10:02;92527.25;;;27.22;57.42
6204;BME280;3135;42.602;23.468;2023-08-31T09:12:29;92549.25;;;27.15;56.17
6204;BME280;3135;42.602;23.468;2023-08-31T09:14:58;92536.53;;;27.42;57.61
6204;BME280;3135;42.602;23.468;2023-08-31T09:17:24;92545.53;;;27.46;57.34
6204;BME280;3135;42.602;23.468;2023-08-31T09:20:02;92520.03;;;27.53;57.14
6204;BME280;3135;42.602;23.468;2023-08-31T09:22:31;92532.47;;;27.65;58.89
6204;BME280;3135;42.602;23.468;2023-08-31T09:24:57;92544.56;;;27.82;49.77
6204;BME280;3135;42.602;23.468;2023-08-31T09:27:27;92523.81;;;27.73;51.36
6204;BME280;3135;42.602;23.468;2023-08-31T09:29:55;92540.75;;;28.13;48.69
6204;BME280;3135;42.602;23.468;2023-08-31T09:32:21;92539.81;;;28.34;49.64
6204;BME280;3135;42.602;23.468;2023-08-31T09:34:49;92539.97;;;28.58;46.39
6204;BME280;3135;42.602;23.468;2023-08-31T09:37:17;92547.34;;;28.68;45.06
6204;BME280;3135;42.602;23.468;2023-08-31T09:39:44;92533.78;;;28.84;45.21
6204;BME280;3135;42.602;23.468;2023-08-31T09:42:09;92541.09;;;29.01;46.29
6204;BME280;3135;42.602;23.468;2023-08-31T09:44:40;92534.84;;;28.60;44.66
6204;BME280;3135;42.602;23.468;2023-08-31T09:47:05;92545.50;;;28.92;44.21
6204;BME280;3135;42.602;23.468;2023-08-31T09:49:32;92536.88;;;28.90;43.23
6204;BME280;3135;42.602;23.468;2023-08-31T09:52:00;92542.78;;;28.88;44.32
6204;BME280;3135;42.602;23.468;2023-08-31T09:54:29;92542.59;;;28.72;42.14
6204;BME280;3135;42.602;23.468;2023-08-31T09:56:55;92544.13;;;28.73;45.77
6204;BME280;3135;42.602;23.468;2023-08-31T09:59:21;92540.81;;;28.89;49.12
6204;BME280;3135;42.602;23.468;2023-08-31T10:01:47;92532.66;;;29.16;44.82
6204;BME280;3135;42.602;23.468;2023-08-31T10:04:13;92533.78;;;29.49;42.92
6204;BME280;3135;42.602;23.468;2023-08-31T10:06:40;92546.09;;;29.71;43.35
6204;BME280;3135;42.602;23.468;2023-08-31T10:09:06;92535.25;;;29.61;44.49
6204;BME280;3135;42.602;23.468;2023-08-31T10:11:32;92539.84;;;29.94;42.27
6204;BME280;3135;42.602;23.468;2023-08-31T10:13:58;92545.56;;;29.80;42.06
6204;BME280;3135;42.602;23.468;2023-08-31T10:16:27;92543.88;;;29.59;41.00
6204;BME280;3135;42.602;23.468;2023-08-31T10:18:55;92519.13;;;29.28;44.13
6204;BME280;3135;42.602;23.468;2023-08-31T10:21:23;92525.22;;;29.74;44.07
6204;BME280;3135;42.602;23.468;2023-08-31T10:23:50;92521.16;;;29.55;41.36
6204;BME280;3135;42.602;23.468;2023-08-31T10:26:31;92528.69;;;29.17;41.99
6204;BME280;3135;42.602;23.468;2023-08-31T10:28:58;92533.75;;;29.52;45.10
6204;BME280;3135;42.602;23.468;2023-08-31T10:31:28;92538.09;;;29.50;44.67
6204;BME280;3135;42.602;23.468;2023-08-31T10:34:01;92537.72;;;29.78;44.53
6204;BME280;3135;42.602;23.468;2023-08-31T10:36:50;92540.84;;;29.50;42.73
6204;BME280;3135;42.602;23.468;2023-08-31T10:39:17;92540.19;;;29.42;44.39
6204;BME280;3135;42.602;23.468;2023-08-31T10:41:55;92531.88;;;29.15;43.39
6204;BME280;3135;42.602;23.468;2023-08-31T10:44:25;92530.25;;;28.84;47.36
6204;BME280;3135;42.602;23.468;2023-08-31T10:46:52;92544.53;;;28.75;44.72
6204;BME280;3135;42.602;23.468;2023-08-31T10:49:20;92538.06;;;28.51;44.94
6204;BME280;3135;42.602;23.468;2023-08-31T10:51:57;92541.63;;;28.51;45.60
6204;BME280;3135;42.602;23.468;2023-08-31T10:54:25;92544.13;;;28.35;45.40
6204;BME280;3135;42.602;23.468;2023-08-31T10:56:54;92559.41;;;28.36;43.74
6204;BME280;3135;42.602;23.468;2023-08-31T10:59:25;92544.22;;;28.66;42.84
6204;BME280;3135;42.602;23.468;2023-08-31T11:01:57;92564.03;;;28.46;42.74
6204;BME280;3135;42.602;23.468;2023-08-31T11:04:24;92556.31;;;28.34;43.66
6204;BME280;3135;42.602;23.468;2023-08-31T11:09:38;92545.97;;;28.49;43.68
6204;BME280;3135;42.602;23.468;2023-08-31T11:12:04;92531.44;;;28.83;43.83
6204;BME280;3135;42.602;23.468;2023-08-31T11:14:30;92548.59;;;28.60;42.19
6204;BME280;3135;42.602;23.468;2023-08-31T11:16:55;92556.69;;;28.74;41.23
6204;BME280;3135;42.602;23.468;2023-08-31T11:19:21;92538.84;;;28.89;41.96
6204;BME280;3135;42.602;23.468;2023-08-31T11:21:47;92535.63;;;28.98;41.88
6204;BME280;3135;42.602;23.468;2023-08-31T11:24:12;92545.66;;;29.46;41.01
6204;BME280;3135;42.602;23.468;2023-08-31T11:26:38;92550.13;;;29.63;41.15
6204;BME280;3135;42.602;23.468;2023-08-31T11:29:07;92540.28;;;29.66;39.84
6204;BME280;3135;42.602;23.468;2023-08-31T11:31:38;92545.56;;;29.49;41.25
6204;BME280;3135;42.602;23.468;2023-08-31T11:34:15;92540.84;;;29.23;41.14
6204;BME280;3135;42.602;23.468;2023-08-31T11:36:42;92528.47;;;29.35;41.48
6204;BME280;3135;42.602;23.468;2023-08-31T11:39:09;92534.03;;;29.62;39.90
6204;BME280;3135;42.602;23.468;2023-08-31T11:41:36;92553.47;;;29.47;39.94
6204;BME280;3135;42.602;23.468;2023-08-31T11:44:08;92543.41;;;29.37;40.55
6204;BME280;3135;42.602;23.468;2023-08-31T11:46:35;92526.66;;;29.55;40.35
6204;BME280;3135;42.602;23.468;2023-08-31T11:49:02;92546.31;;;30.08;40.50
6204;BME280;3135;42.602;23.468;2023-08-31T11:51:29;92529.09;;;30.27;39.18
6204;BME280;3135;42.602;23.468;2023-08-31T11:53:56;92533.59;;;30.17;40.40
6204;BME280;3135;42.602;23.468;2023-08-31T11:56:23;92538.50;;;29.79;40.81
6204;BME280;3135;42.602;23.468;2023-08-31T11:58:50;92516.81;;;29.27;44.18
6204;BME280;3135;42.602;23.468;2023-08-31T12:01:22;92540.38;;;29.28;43.91
6204;BME280;3135;42.602;23.468;2023-08-31T12:03:49;92526.50;;;29.35;43.24
6204;BME280;3135;42.602;23.468;2023-08-31T12:06:18;92540.31;;;29.89;43.22
6204;BME280;3135;42.602;23.468;2023-08-31T12:08:44;92532.53;;;29.53;41.62
6204;BME280;3135;42.602;23.468;2023-08-31T12:11:09;92540.16;;;29.12;42.18
6204;BME280;3135;42.602;23.468;2023-08-31T12:13:35;92531.34;;;28.56;43.61
6204;BME280;3135;42.602;23.468;2023-08-31T12:16:00;92539.56;;;28.97;43.85
6204;BME280;3135;42.602;23.468;2023-08-31T12:18:32;92544.06;;;29.45;43.99
6204;BME280;3135;42.602;23.468;2023-08-31T12:20:58;92541.28;;;29.18;44.50
6204;BME280;3135;42.602;23.468;2023-08-31T12:23:23;92523.81;;;29.01;46.63
6204;BME280;3135;42.602;23.468;2023-08-31T12:25:52;92518.19;;;28.74;46.31
6204;BME280;3135;42.602;23.468;2023-08-31T12:28:19;92522.41;;;28.82;47.65
6204;BME280;3135;42.602;23.468;2023-08-31T12:30:49;92523.16;;;28.86;46.83
6204;BME280;3135;42.602;23.468;2023-08-31T12:33:15;92523.69;;;28.74;46.31
6204;BME280;3135;42.602;23.468;2023-08-31T12:35:41;92525.31;;;28.71;47.29
6204;BME280;3135;42.602;23.468;2023-08-31T12:38:06;92529.94;;;28.40;47.30
6204;BME280;3135;42.602;23.468;2023-08-31T12:40:32;92519.19;;;28.57;46.48
6204;BME280;3135;42.602;23.468;2023-08-31T12:42:57;92537.09;;;28.72;47.60
6204;BME280;3135;42.602;23.468;2023-08-31T12:45:23;92523.78;;;28.67;47.08
6204;BME280;3135;42.602;23.468;2023-08-31T12:47:48;92531.75;;;28.58;47.17
6204;BME280;3135;42.602;23.468;2023-08-31T12:50:14;92509.41;;;28.52;46.72
6204;BME280;3135;42.602;23.468;2023-08-31T12:52:39;92520.41;;;28.86;46.77
6204;BME280;3135;42.602;23.468;2023-08-31T12:55:18;92524.75;;;28.84;45.83
6204;BME280;3135;42.602;23.468;2023-08-31T12:57:44;92510.63;;;28.47;47.36
6204;BME280;3135;42.602;23.468;2023-08-31T13:00:10;92521.75;;;28.33;47.34
6204;BME280;3135;42.602;23.468;2023-08-31T13:02:40;92518.81;;;28.10;47.28
6204;BME280;3135;42.602;23.468;2023-08-31T13:05:06;92508.09;;;27.77;48.21
6204;BME280;3135;42.602;23.468;2023-08-31T13:07:34;92523.72;;;27.84;49.72
6204;BME280;3135;42.602;23.468;2023-08-31T13:10:00;92519.94;;;28.16;48.71
6204;BME280;3135;42.602;23.468;2023-08-31T13:12:26;92516.00;;;28.17;48.88
6204;BME280;3135;42.602;23.468;2023-08-31T13:14:51;92516.91;;;28.03;48.57
6204;BME280;3135;42.602;23.468;2023-08-31T13:17:17;92521.25;;;28.00;47.75